Barrier, Kentucky
Current Conditions -  °F | °C
As of 10:03 AM on Friday 31 Oct 2014 (Local Time) from KEKQ Reporting Station
Light Rain Light Rain  
Wind Chill: 45°   Ceiling: 4400
Heat Index: 45°   Visibility: 3mi
Dew Point: 43°   Wind: 0mph
Humidity: 93%   Direction: NA
Pressure: 30.02"   Gusts: NA
Location:  36.8129°N, 84.8215°W
Report Text: KEKQ 311403Z AUTO 00000KT 3SM -RA BR FEW034 OVC044 07/06 A3002 RMK AO2 P0000
Loading
Personal Weather Stations






























Interactive Weather Map
Tropical Storm Tracking
New forecast layout! Learn more

10-Day Weather Forecast

Advertisements
Track Severe Weather on mobile